createdAt,value
2017-08-04T00:00:39.079Z,0
2017-08-04T00:01:20.054Z,0
2017-08-04T00:02:01.006Z,0
2017-08-04T00:02:42.003Z,0
2017-08-04T00:03:22.957Z,0
2017-08-04T00:04:03.935Z,0
2017-08-04T00:04:44.884Z,0
2017-08-04T00:05:25.835Z,0
2017-08-04T00:06:06.812Z,0
2017-08-04T00:06:47.772Z,0
2017-08-04T00:07:28.701Z,0
2017-08-04T00:08:09.635Z,0
2017-08-04T00:08:50.607Z,0
2017-08-04T00:09:31.546Z,0
2017-08-04T00:10:12.430Z,0
2017-08-04T00:10:53.328Z,0
2017-08-04T00:11:34.241Z,0
2017-08-04T00:12:15.140Z,0
2017-08-04T00:12:56.097Z,0
2017-08-04T00:15:06.142Z,0
2017-08-04T00:15:47.053Z,0
2017-08-04T00:16:28.018Z,0
2017-08-04T00:17:08.954Z,0
2017-08-04T00:17:49.900Z,0
2017-08-04T00:18:30.838Z,0
2017-08-04T00:19:11.814Z,0
2017-08-04T00:19:52.704Z,0
2017-08-04T00:20:33.583Z,0
2017-08-04T00:21:14.496Z,0
2017-08-04T00:21:55.457Z,0
2017-08-04T00:22:36.363Z,0
2017-08-04T00:23:17.270Z,0
2017-08-04T00:23:58.190Z,0
2017-08-04T00:24:39.084Z,0
2017-08-04T00:25:20.015Z,0
2017-08-04T00:26:01.049Z,0
2017-08-04T00:29:28.062Z,0
2017-08-04T00:30:08.989Z,0
2017-08-04T00:30:49.931Z,0
2017-08-04T00:32:43.564Z,0
2017-08-04T00:33:24.507Z,0
2017-08-04T00:34:05.406Z,0
2017-08-04T00:34:46.363Z,0
2017-08-04T00:35:27.345Z,0
2017-08-04T00:36:08.286Z,0
2017-08-04T00:38:22.525Z,0
2017-08-04T00:39:03.457Z,0
2017-08-04T00:41:17.672Z,0
2017-08-04T00:41:58.615Z,0
2017-08-04T00:42:39.626Z,0
2017-08-04T00:43:20.583Z,0
2017-08-04T00:44:01.551Z,0
2017-08-04T00:44:42.530Z,0
2017-08-04T00:45:23.524Z,0
2017-08-04T00:46:04.461Z,0
2017-08-04T00:46:45.405Z,0
2017-08-04T00:47:26.361Z,0
2017-08-04T00:48:07.303Z,0
2017-08-04T00:48:48.249Z,0
2017-08-04T00:49:29.204Z,0
2017-08-04T00:50:10.170Z,0
2017-08-04T00:50:51.102Z,0
2017-08-04T00:51:32.042Z,0
2017-08-04T00:52:12.980Z,0
2017-08-04T00:52:53.940Z,0
2017-08-04T00:53:34.889Z,0
2017-08-04T00:54:15.849Z,0
2017-08-04T00:54:56.804Z,0
2017-08-04T00:55:37.749Z,0
2017-08-04T00:56:18.708Z,0
2017-08-04T00:56:59.675Z,0
2017-08-04T00:57:40.659Z,0
2017-08-04T00:58:21.589Z,0
2017-08-04T00:59:02.556Z,0
2017-08-04T00:59:43.467Z,0
2017-08-04T01:00:24.438Z,0
2017-08-04T01:01:05.403Z,0
2017-08-04T01:01:46.361Z,0
2017-08-04T01:02:27.296Z,0
2017-08-04T01:03:08.241Z,0
2017-08-04T01:03:49.206Z,0
2017-08-04T01:04:30.172Z,0
2017-08-04T01:05:11.159Z,0
2017-08-04T01:05:52.122Z,0
2017-08-04T01:06:33.097Z,0
2017-08-04T01:07:14.095Z,0
2017-08-04T01:07:55.058Z,0
2017-08-04T01:08:36.014Z,0
2017-08-04T01:09:16.971Z,0
2017-08-04T01:11:36.393Z,0
2017-08-04T01:12:17.347Z,0
2017-08-04T01:12:58.303Z,0
2017-08-04T01:13:39.234Z,0
2017-08-04T01:14:20.182Z,0
2017-08-04T01:15:01.162Z,0
2017-08-04T01:15:42.089Z,0
2017-08-04T01:16:23.043Z,0
2017-08-04T01:17:03.958Z,0
2017-08-04T01:17:44.903Z,0
2017-08-04T01:18:25.851Z,0
2017-08-04T01:19:06.792Z,0
2017-08-04T01:19:47.761Z,0
2017-08-04T01:20:28.704Z,0
2017-08-04T01:22:22.366Z,0
2017-08-04T01:23:03.334Z,0
2017-08-04T01:23:44.276Z,0
2017-08-04T01:24:25.203Z,0
2017-08-04T01:25:06.128Z,0
2017-08-04T01:25:47.064Z,0
2017-08-04T01:26:28.001Z,0
2017-08-04T01:27:08.936Z,0
2017-08-04T01:27:49.951Z,0
2017-08-04T01:28:30.918Z,0
2017-08-04T01:29:11.865Z,0
2017-08-04T01:29:52.828Z,0
2017-08-04T01:30:33.775Z,0
2017-08-04T01:31:14.720Z,0
2017-08-04T01:31:55.664Z,0
2017-08-04T01:32:36.573Z,0
2017-08-04T01:33:17.447Z,0
2017-08-04T01:33:58.411Z,0
2017-08-04T01:34:39.392Z,0
2017-08-04T01:35:20.402Z,0
2017-08-04T01:36:01.341Z,0
2017-08-04T01:36:42.318Z,0
2017-08-04T01:37:23.270Z,0
2017-08-04T01:38:04.159Z,0
2017-08-04T01:38:45.036Z,0
2017-08-04T01:39:25.920Z,0
2017-08-04T01:40:06.830Z,0
2017-08-04T01:40:47.747Z,0
2017-08-04T01:41:28.717Z,0
2017-08-04T01:42:09.696Z,0
2017-08-04T01:42:50.672Z,0
2017-08-04T01:43:31.602Z,0
2017-08-04T01:44:12.484Z,0
2017-08-04T01:44:53.406Z,0
2017-08-04T01:45:34.311Z,0
2017-08-04T01:46:29.766Z,0
2017-08-04T01:47:10.693Z,0
2017-08-04T01:47:51.663Z,0
2017-08-04T01:48:32.623Z,0
2017-08-04T01:49:13.587Z,0
2017-08-04T01:49:54.505Z,0
2017-08-04T01:52:13.904Z,0
2017-08-04T01:54:33.315Z,0
2017-08-04T01:55:14.259Z,0
2017-08-04T01:55:55.207Z,0
2017-08-04T01:56:36.159Z,0
2017-08-04T01:57:17.078Z,0
2017-08-04T01:57:58.020Z,0
2017-08-04T01:58:38.934Z,0
2017-08-04T01:59:19.861Z,0
2017-08-04T02:00:00.804Z,0
2017-08-04T02:00:41.726Z,0
2017-08-04T02:01:22.638Z,0
2017-08-04T02:02:03.590Z,0
2017-08-04T02:02:44.551Z,0
2017-08-04T02:03:25.477Z,0
2017-08-04T02:04:06.453Z,0
2017-08-04T02:04:47.398Z,0
2017-08-04T02:05:28.327Z,0
2017-08-04T02:06:09.250Z,0
2017-08-04T02:06:50.218Z,0
2017-08-04T02:07:31.193Z,0
2017-08-04T02:08:12.125Z,0
2017-08-04T02:08:53.097Z,0
2017-08-04T02:09:34.019Z,0
2017-08-04T02:10:14.953Z,0
2017-08-04T02:10:55.876Z,0
2017-08-04T02:11:36.816Z,0
2017-08-04T02:12:17.755Z,0
2017-08-04T02:12:58.706Z,0
2017-08-04T02:13:39.666Z,0
2017-08-04T02:14:20.603Z,0
2017-08-04T02:15:01.575Z,0
2017-08-04T02:15:42.488Z,0
2017-08-04T02:16:23.413Z,0
2017-08-04T02:17:04.303Z,0
2017-08-04T02:17:45.269Z,0
2017-08-04T02:18:26.179Z,0
2017-08-04T02:19:07.183Z,0
2017-08-04T02:19:48.150Z,0
2017-08-04T02:21:41.776Z,0
2017-08-04T02:22:22.722Z,0
2017-08-04T02:23:03.672Z,0
2017-08-04T02:23:44.570Z,0
2017-08-04T02:24:25.515Z,0
2017-08-04T02:25:06.436Z,0
2017-08-04T02:25:47.373Z,0
2017-08-04T02:26:28.315Z,0
2017-08-04T02:27:09.284Z,0
2017-08-04T02:30:42.370Z,0
2017-08-04T02:32:37.080Z,0
2017-08-04T02:33:18.080Z,0
2017-08-04T02:33:59.027Z,0
2017-08-04T02:34:39.964Z,0
2017-08-04T02:35:20.924Z,0
2017-08-04T02:36:01.860Z,0
2017-08-04T02:36:42.839Z,0
2017-08-04T02:37:23.891Z,0
2017-08-04T02:38:04.868Z,0
2017-08-04T02:38:45.741Z,0
2017-08-04T02:39:26.734Z,0
2017-08-04T02:40:07.622Z,0
2017-08-04T02:40:48.578Z,0
2017-08-04T02:41:29.510Z,0
2017-08-04T02:43:48.873Z,0
2017-08-04T02:44:29.832Z,0
2017-08-04T02:45:10.834Z,0
2017-08-04T02:45:51.790Z,0
2017-08-04T02:46:32.698Z,0
2017-08-04T02:47:13.628Z,0
2017-08-04T02:47:54.585Z,0
2017-08-04T02:48:35.500Z,0
2017-08-04T02:49:16.506Z,0
2017-08-04T02:49:57.398Z,0
2017-08-04T02:50:38.367Z,0
2017-08-04T02:51:19.302Z,0
2017-08-04T02:52:00.270Z,0
2017-08-04T02:52:41.184Z,0
2017-08-04T02:53:22.114Z,0
2017-08-04T02:55:32.212Z,0
2017-08-04T02:56:13.163Z,0
2017-08-04T02:56:54.138Z,0
2017-08-04T02:57:35.037Z,0
2017-08-04T02:58:15.947Z,0
2017-08-04T02:58:56.869Z,0
2017-08-04T02:59:37.796Z,0
2017-08-04T03:00:18.709Z,0
2017-08-04T03:00:59.630Z,0
2017-08-04T03:01:40.572Z,0
2017-08-04T03:02:21.498Z,0
2017-08-04T03:03:02.507Z,0
2017-08-04T03:03:43.494Z,0
2017-08-04T03:04:24.413Z,0
2017-08-04T03:05:05.390Z,0
2017-08-04T03:05:46.354Z,0
2017-08-04T03:06:27.321Z,0
2017-08-04T03:07:08.258Z,0
2017-08-04T03:07:49.173Z,0
2017-08-04T03:08:30.167Z,0
2017-08-04T03:09:11.100Z,0
2017-08-04T03:09:52.014Z,0
2017-08-04T03:10:32.949Z,0
2017-08-04T03:11:13.934Z,0
2017-08-04T03:11:54.907Z,0
2017-08-04T03:12:35.860Z,0
2017-08-04T03:13:16.759Z,0
2017-08-04T03:13:57.657Z,0
2017-08-04T03:14:38.597Z,0
2017-08-04T03:15:19.559Z,0
2017-08-04T03:16:00.499Z,0
2017-08-04T03:16:41.394Z,0
2017-08-04T03:17:22.322Z,0
2017-08-04T03:18:03.245Z,0
2017-08-04T03:18:44.149Z,0
2017-08-04T03:19:25.101Z,0
2017-08-04T03:20:06.011Z,0
2017-08-04T03:20:46.984Z,0
2017-08-04T03:21:27.913Z,0
2017-08-04T03:22:08.808Z,0
2017-08-04T03:22:49.814Z,0
2017-08-04T03:23:30.832Z,0
2017-08-04T03:24:11.760Z,5
2017-08-04T03:24:52.661Z,5
2017-08-04T03:25:33.551Z,5
2017-08-04T03:26:14.426Z,5
2017-08-04T03:26:55.329Z,5
2017-08-04T03:27:36.218Z,5
2017-08-04T03:28:17.107Z,5
2017-08-04T03:28:57.998Z,5
2017-08-04T03:29:38.891Z,5
2017-08-04T03:30:19.777Z,5
2017-08-04T03:31:00.665Z,5
2017-08-04T03:31:41.550Z,5
2017-08-04T03:32:22.428Z,5
2017-08-04T03:33:03.313Z,5
2017-08-04T03:33:44.229Z,5
2017-08-04T03:34:25.108Z,5
2017-08-04T03:35:05.988Z,10
2017-08-04T03:35:46.898Z,10
2017-08-04T03:36:27.789Z,10
2017-08-04T03:37:08.684Z,10
2017-08-04T03:37:49.575Z,10
2017-08-04T03:38:30.470Z,10
2017-08-04T03:39:11.346Z,10
2017-08-04T03:39:52.242Z,10
2017-08-04T03:40:33.133Z,15
2017-08-04T03:41:14.044Z,15
2017-08-04T03:41:54.936Z,15
2017-08-04T03:42:35.828Z,15
2017-08-04T03:43:16.711Z,15
2017-08-04T03:43:57.600Z,15
2017-08-04T03:44:38.492Z,20
2017-08-04T03:45:19.383Z,20
2017-08-04T03:46:00.277Z,20
2017-08-04T03:46:41.174Z,20
2017-08-04T03:47:22.071Z,20
2017-08-04T03:48:02.958Z,20
2017-08-04T03:48:43.847Z,20
2017-08-04T03:49:24.747Z,25
2017-08-04T03:50:05.625Z,25
2017-08-04T03:50:46.510Z,25
2017-08-04T03:51:27.402Z,25
2017-08-04T03:52:08.303Z,25
2017-08-04T03:52:49.196Z,30
2017-08-04T03:53:30.083Z,30
2017-08-04T03:54:10.973Z,30
2017-08-04T03:54:51.864Z,30
2017-08-04T03:55:32.758Z,35
2017-08-04T03:56:13.650Z,35
2017-08-04T03:56:54.533Z,35
2017-08-04T03:57:35.437Z,35
2017-08-04T03:58:16.332Z,35
2017-08-04T03:58:57.233Z,35
2017-08-04T03:59:38.124Z,35
2017-08-04T04:00:19.023Z,40
2017-08-04T04:00:59.934Z,40
2017-08-04T04:01:40.829Z,45
2017-08-04T04:02:21.716Z,45
2017-08-04T04:03:02.636Z,45
2017-08-04T04:03:43.531Z,40
2017-08-04T04:04:24.421Z,40
2017-08-04T04:05:05.319Z,40
2017-08-04T04:05:46.214Z,40
2017-08-04T04:06:27.102Z,40
2017-08-04T04:07:07.995Z,40
2017-08-04T04:07:48.896Z,40
2017-08-04T04:08:29.790Z,40
2017-08-04T04:09:10.673Z,45
2017-08-04T04:09:51.567Z,45
2017-08-04T04:10:32.458Z,45
2017-08-04T04:11:13.344Z,45
2017-08-04T04:11:54.247Z,45
2017-08-04T04:14:08.529Z,50
2017-08-04T04:14:49.426Z,55
2017-08-04T04:15:30.315Z,55
2017-08-04T04:16:11.222Z,55
2017-08-04T04:16:52.103Z,55
2017-08-04T04:17:32.988Z,55
2017-08-04T04:18:13.881Z,55
2017-08-04T04:18:54.772Z,50
2017-08-04T04:19:35.647Z,55
2017-08-04T04:20:16.536Z,55
2017-08-04T04:20:57.430Z,55
2017-08-04T04:21:38.323Z,55
2017-08-04T04:22:19.196Z,55
2017-08-04T04:23:00.083Z,55
2017-08-04T04:23:40.970Z,55
2017-08-04T04:24:21.864Z,60
2017-08-04T04:25:02.760Z,60
2017-08-04T04:25:43.651Z,65
2017-08-04T04:26:24.527Z,65
2017-08-04T04:27:05.411Z,65
2017-08-04T04:27:46.306Z,70
2017-08-04T04:28:27.256Z,70
2017-08-04T04:29:08.145Z,70
2017-08-04T04:29:49.032Z,70
2017-08-04T04:30:29.932Z,70
2017-08-04T04:31:10.835Z,70
2017-08-04T04:31:51.716Z,75
2017-08-04T04:32:32.627Z,75
2017-08-04T04:33:13.502Z,80
2017-08-04T04:33:54.407Z,85
2017-08-04T04:34:35.302Z,85
2017-08-04T04:35:16.194Z,85
2017-08-04T04:35:57.072Z,85
2017-08-04T04:36:37.957Z,85
2017-08-04T04:37:18.845Z,90
2017-08-04T04:37:59.735Z,90
2017-08-04T04:38:40.626Z,95
2017-08-04T04:39:21.524Z,100
2017-08-04T04:40:02.419Z,105
2017-08-04T04:40:43.327Z,115
2017-08-04T04:41:24.209Z,115
2017-08-04T04:42:05.098Z,120
2017-08-04T04:42:45.991Z,120
2017-08-04T04:43:26.883Z,120
2017-08-04T04:44:07.772Z,120
2017-08-04T04:44:48.658Z,120
2017-08-04T04:45:29.570Z,115
2017-08-04T04:46:10.469Z,115
2017-08-04T04:46:51.360Z,110
2017-08-04T04:47:32.262Z,110
2017-08-04T04:48:13.150Z,110
2017-08-04T04:48:54.053Z,105
2017-08-04T04:49:35.011Z,100
2017-08-04T04:50:15.899Z,95
2017-08-04T04:50:56.784Z,100
2017-08-04T04:51:37.682Z,100
2017-08-04T04:52:18.566Z,95
2017-08-04T04:52:59.464Z,95
2017-08-04T04:53:40.391Z,95
2017-08-04T04:54:21.341Z,95
2017-08-04T04:55:02.230Z,95
2017-08-04T04:55:43.119Z,100
2017-08-04T04:56:24.019Z,100
2017-08-04T04:57:04.905Z,110
2017-08-04T04:57:45.795Z,105
2017-08-04T04:58:26.686Z,110
2017-08-04T04:59:07.583Z,115
2017-08-04T04:59:48.465Z,120
2017-08-04T05:00:29.359Z,120
2017-08-04T05:01:10.254Z,120
2017-08-04T05:01:51.149Z,125
2017-08-04T05:02:32.049Z,125
2017-08-04T05:03:12.937Z,125
2017-08-04T05:03:53.835Z,125
2017-08-04T05:04:34.723Z,125
2017-08-04T05:05:15.616Z,130
2017-08-04T05:05:56.513Z,135
2017-08-04T05:06:37.404Z,145
2017-08-04T05:07:18.294Z,160
2017-08-04T05:07:59.197Z,160
2017-08-04T05:08:40.104Z,160
2017-08-04T05:09:20.994Z,155
2017-08-04T05:10:01.887Z,150
2017-08-04T05:10:42.786Z,150
2017-08-04T05:11:23.688Z,145
2017-08-04T05:12:04.603Z,145
2017-08-04T05:12:45.493Z,145
2017-08-04T05:13:26.392Z,150
2017-08-04T05:14:07.291Z,150
2017-08-04T05:14:48.185Z,150
2017-08-04T05:15:29.071Z,145
2017-08-04T05:16:09.967Z,140
2017-08-04T05:16:50.862Z,135
2017-08-04T05:17:31.749Z,130
2017-08-04T05:18:12.641Z,130
2017-08-04T05:18:53.532Z,130
2017-08-04T05:19:34.422Z,135
2017-08-04T05:20:15.314Z,140
2017-08-04T05:20:56.190Z,145
2017-08-04T05:21:37.094Z,160
2017-08-04T05:22:17.963Z,170
2017-08-04T05:22:58.862Z,190
2017-08-04T05:23:39.801Z,200
2017-08-04T05:24:20.703Z,205
2017-08-04T05:25:01.583Z,210
2017-08-04T05:25:42.468Z,215
2017-08-04T05:26:23.361Z,215
2017-08-04T05:27:04.247Z,210
2017-08-04T05:27:45.138Z,210
2017-08-04T05:28:26.039Z,205
2017-08-04T05:29:06.933Z,200
2017-08-04T05:29:47.879Z,195
2017-08-04T05:30:28.765Z,195
2017-08-04T05:31:09.669Z,195
2017-08-04T05:31:50.551Z,195
2017-08-04T05:32:31.443Z,200
2017-08-04T05:33:12.322Z,210
2017-08-04T05:33:53.214Z,215
2017-08-04T05:34:34.112Z,225
2017-08-04T05:35:15.015Z,225
2017-08-04T05:35:55.901Z,230
2017-08-04T05:36:36.791Z,240
2017-08-04T05:37:17.681Z,245
2017-08-04T05:37:58.579Z,265
2017-08-04T05:38:39.473Z,275
2017-08-04T05:39:20.371Z,295
2017-08-04T05:40:01.261Z,295
2017-08-04T05:40:42.159Z,290
2017-08-04T05:41:23.048Z,285
2017-08-04T05:42:04.001Z,270
2017-08-04T05:42:44.905Z,275
2017-08-04T05:43:25.792Z,265
2017-08-04T05:44:06.687Z,240
2017-08-04T05:44:47.581Z,220
2017-08-04T05:45:28.477Z,220
2017-08-04T05:46:09.366Z,230
2017-08-04T05:46:50.265Z,245
2017-08-04T05:47:31.227Z,260
2017-08-04T05:48:12.121Z,280
2017-08-04T05:48:53.024Z,290
2017-08-04T05:49:33.921Z,300
2017-08-04T05:50:14.821Z,295
2017-08-04T05:50:55.703Z,295
2017-08-04T05:51:36.598Z,300
2017-08-04T05:52:17.490Z,295
2017-08-04T05:54:17.295Z,280
2017-08-04T05:54:58.197Z,280
2017-08-04T05:55:39.096Z,280
2017-08-04T05:56:19.993Z,275
2017-08-04T05:57:00.889Z,270
2017-08-04T05:57:41.778Z,265
2017-08-04T05:58:22.673Z,270
2017-08-04T05:59:03.831Z,275
2017-08-04T05:59:44.720Z,270
2017-08-04T06:00:25.617Z,275
2017-08-04T06:01:06.932Z,260
2017-08-04T06:01:50.170Z,240
2017-08-04T06:02:30.860Z,240
2017-08-04T06:03:11.872Z,255
2017-08-04T06:05:10.745Z,260
2017-08-04T06:05:51.652Z,260
2017-08-04T06:06:32.552Z,260
2017-08-04T06:07:13.446Z,255
2017-08-04T06:07:54.350Z,255
2017-08-04T06:08:35.248Z,240
2017-08-04T06:09:16.149Z,240
2017-08-04T06:09:57.048Z,245
2017-08-04T06:10:37.934Z,235
2017-08-04T06:11:18.817Z,235
2017-08-04T06:11:59.718Z,230
2017-08-04T06:12:40.605Z,230
2017-08-04T06:13:21.499Z,240
2017-08-04T06:14:02.377Z,255
2017-08-04T06:14:43.289Z,270
2017-08-04T06:15:24.168Z,295
2017-08-04T06:16:05.056Z,320
2017-08-04T06:16:45.941Z,335
2017-08-04T06:17:26.846Z,360
2017-08-04T06:18:07.746Z,380
2017-08-04T06:18:48.640Z,380
2017-08-04T06:19:29.537Z,410
2017-08-04T06:20:10.457Z,430
2017-08-04T06:20:51.360Z,435
2017-08-04T06:21:32.255Z,430
2017-08-04T06:22:13.156Z,360
2017-08-04T06:22:54.050Z,345
2017-08-04T06:23:34.948Z,280
2017-08-04T06:24:15.837Z,315
2017-08-04T06:24:56.736Z,355
2017-08-04T06:25:37.633Z,395
2017-08-04T06:26:18.535Z,425
2017-08-04T06:26:59.435Z,400
2017-08-04T06:27:40.325Z,405
2017-08-04T06:28:21.229Z,425
2017-08-04T06:29:02.136Z,385
2017-08-04T06:29:43.009Z,360
2017-08-04T06:30:23.907Z,380
2017-08-04T06:31:04.793Z,395
2017-08-04T06:31:45.696Z,420
2017-08-04T06:32:26.584Z,390
2017-08-04T06:33:07.477Z,420
2017-08-04T06:33:48.378Z,470
2017-08-04T06:34:29.284Z,410
2017-08-04T06:35:10.182Z,380
2017-08-04T06:35:51.072Z,390
2017-08-04T06:36:31.965Z,490
2017-08-04T06:37:12.856Z,550
2017-08-04T06:37:53.749Z,470
2017-08-04T06:38:34.639Z,500
2017-08-04T06:39:15.558Z,655
2017-08-04T06:39:56.436Z,655
2017-08-04T06:40:37.335Z,775
2017-08-04T06:41:18.259Z,930
2017-08-04T06:41:59.158Z,530
2017-08-04T06:42:40.065Z,445
2017-08-04T06:43:20.985Z,435
2017-08-04T06:44:01.879Z,1465
2017-08-04T06:44:42.769Z,1555
2017-08-04T06:45:23.681Z,1230
2017-08-04T06:46:04.557Z,1700
2017-08-04T06:46:45.450Z,1775
2017-08-04T06:47:26.345Z,1820
2017-08-04T06:48:07.282Z,1585
2017-08-04T06:48:48.154Z,1275
2017-08-04T06:49:29.054Z,890
2017-08-04T06:50:09.961Z,500
2017-08-04T06:50:50.859Z,680
2017-08-04T06:51:31.760Z,1205
2017-08-04T06:52:12.667Z,430
2017-08-04T06:52:53.561Z,400
2017-08-04T06:53:34.458Z,385
2017-08-04T06:54:15.576Z,470
2017-08-04T06:54:56.434Z,420
2017-08-04T06:55:37.322Z,810
2017-08-04T06:56:18.223Z,790
2017-08-04T06:56:59.129Z,635
2017-08-04T06:57:40.018Z,665
2017-08-04T06:58:20.918Z,765
2017-08-04T06:59:01.812Z,565
2017-08-04T06:59:42.722Z,425
2017-08-04T07:00:23.622Z,555
2017-08-04T07:01:04.535Z,535
2017-08-04T07:01:45.413Z,830
2017-08-04T07:02:26.310Z,415
2017-08-04T07:03:07.212Z,430
2017-08-04T07:03:48.105Z,990
2017-08-04T07:04:29.003Z,825
2017-08-04T07:05:09.900Z,425
2017-08-04T07:05:50.801Z,370
2017-08-04T07:06:31.760Z,385
2017-08-04T07:07:12.668Z,630
2017-08-04T07:07:53.567Z,595
2017-08-04T07:08:34.487Z,325
2017-08-04T07:09:15.367Z,365
2017-08-04T07:09:56.265Z,1570
2017-08-04T07:10:37.153Z,835
2017-08-04T07:11:18.055Z,1485
2017-08-04T07:11:58.945Z,1645
2017-08-04T07:12:39.853Z,570
2017-08-04T07:13:20.742Z,1385
2017-08-04T07:14:01.682Z,640
2017-08-04T07:14:42.585Z,895
2017-08-04T07:15:23.477Z,1875
2017-08-04T07:16:04.375Z,1845
2017-08-04T07:17:59.016Z,510
2017-08-04T07:18:39.916Z,615
2017-08-04T07:19:20.832Z,1240
2017-08-04T07:20:01.706Z,1370
2017-08-04T07:20:42.649Z,1440
2017-08-04T07:22:51.679Z,1390
2017-08-04T07:23:32.570Z,1150
2017-08-04T07:24:13.443Z,1225
2017-08-04T07:24:54.322Z,1295
2017-08-04T07:25:35.233Z,800
2017-08-04T07:26:16.140Z,640
2017-08-04T07:26:57.035Z,800
2017-08-04T07:27:37.913Z,1790
2017-08-04T07:28:18.795Z,1080
2017-08-04T07:28:59.826Z,1315
2017-08-04T07:29:40.722Z,1090
2017-08-04T07:30:21.590Z,1670
2017-08-04T07:31:02.472Z,1140
2017-08-04T07:31:43.340Z,1710
2017-08-04T07:32:24.218Z,1690
2017-08-04T07:33:05.103Z,1450
2017-08-04T07:33:45.991Z,600
2017-08-04T07:34:26.881Z,1555
2017-08-04T07:35:07.774Z,1520
2017-08-04T07:35:48.672Z,1150
2017-08-04T07:36:29.564Z,475
2017-08-04T07:38:28.437Z,625
2017-08-04T07:39:09.311Z,705
2017-08-04T07:39:50.189Z,1725
2017-08-04T07:40:31.085Z,1675
2017-08-04T07:41:12.014Z,795
2017-08-04T07:41:52.914Z,750
2017-08-04T07:42:33.806Z,470
2017-08-04T07:43:14.669Z,440
2017-08-04T07:43:55.548Z,535
2017-08-04T07:44:36.431Z,835
2017-08-04T07:45:17.329Z,880
2017-08-04T07:45:58.207Z,900
2017-08-04T07:46:39.097Z,945
2017-08-04T07:47:19.992Z,820
2017-08-04T07:48:00.889Z,765
2017-08-04T07:48:41.787Z,835
2017-08-04T07:49:22.708Z,680
2017-08-04T07:50:03.687Z,690
2017-08-04T07:50:44.661Z,625
2017-08-04T07:51:25.609Z,520
2017-08-04T07:52:06.563Z,455
2017-08-04T07:52:47.465Z,440
2017-08-04T07:53:28.391Z,470
2017-08-04T07:54:09.366Z,510
2017-08-04T07:54:50.346Z,495
2017-08-04T07:55:31.288Z,505
2017-08-04T07:57:45.532Z,640
2017-08-04T07:58:26.424Z,775
2017-08-04T07:59:07.330Z,880
2017-08-04T07:59:48.233Z,890
2017-08-04T08:00:29.118Z,960
2017-08-04T08:01:10.001Z,1015
2017-08-04T08:01:50.887Z,845
2017-08-04T08:02:31.770Z,920
2017-08-04T08:03:12.645Z,935
2017-08-04T08:03:53.512Z,945
2017-08-04T08:04:34.396Z,1000
2017-08-04T08:05:15.403Z,1085
2017-08-04T08:05:56.237Z,905
2017-08-04T08:06:37.145Z,1930
2017-08-04T08:07:18.037Z,815
2017-08-04T08:07:58.935Z,1080
2017-08-04T08:08:39.821Z,1390
2017-08-04T08:09:20.714Z,1160
2017-08-04T08:10:01.605Z,1805
2017-08-04T08:10:42.495Z,1620
2017-08-04T08:11:23.392Z,2570
2017-08-04T08:12:04.281Z,2645
2017-08-04T08:12:45.189Z,2655
2017-08-04T08:13:26.088Z,1985
2017-08-04T08:14:06.973Z,2365
2017-08-04T08:14:47.886Z,2385
2017-08-04T08:15:28.772Z,2545
2017-08-04T08:16:09.654Z,2600
2017-08-04T08:16:50.576Z,2675
2017-08-04T08:17:31.477Z,2685
2017-08-04T08:18:12.376Z,2735
2017-08-04T08:18:53.297Z,2815
2017-08-04T08:19:34.181Z,2790
2017-08-04T08:20:15.087Z,2810
2017-08-04T08:20:55.978Z,2705
2017-08-04T08:21:36.873Z,2335
2017-08-04T08:22:17.765Z,1990
2017-08-04T08:22:58.653Z,1920
2017-08-04T08:23:39.568Z,2170
2017-08-04T08:24:20.463Z,2470
2017-08-04T08:25:01.374Z,2565
2017-08-04T08:25:42.283Z,2700
2017-08-04T08:26:23.169Z,2710
2017-08-04T08:27:04.061Z,2680
2017-08-04T08:27:44.960Z,2805
2017-08-04T08:28:25.863Z,2845
2017-08-04T08:29:06.779Z,3010
2017-08-04T08:29:47.689Z,3165
2017-08-04T08:30:28.613Z,3175
2017-08-04T08:31:09.514Z,3095
2017-08-04T08:31:50.418Z,1420
2017-08-04T08:32:31.326Z,1530
2017-08-04T08:33:12.222Z,2065
2017-08-04T08:33:53.122Z,1210
2017-08-04T08:34:34.034Z,2085
2017-08-04T08:35:14.963Z,1295
2017-08-04T08:35:55.876Z,1355
2017-08-04T08:36:36.795Z,1500
2017-08-04T08:37:17.690Z,1505
2017-08-04T08:37:58.596Z,1935
2017-08-04T08:38:39.509Z,1515
2017-08-04T08:39:20.411Z,1385
2017-08-04T08:40:01.321Z,1450
2017-08-04T08:40:42.261Z,1335
2017-08-04T08:41:23.144Z,1140
2017-08-04T08:42:04.051Z,860
2017-08-04T08:42:44.955Z,800
2017-08-04T08:43:25.843Z,805
2017-08-04T08:44:06.754Z,770
2017-08-04T08:44:47.655Z,720
2017-08-04T08:45:28.566Z,735
2017-08-04T08:46:09.455Z,865
2017-08-04T08:46:50.383Z,1255
2017-08-04T08:47:31.295Z,1145
2017-08-04T08:48:12.210Z,1410
2017-08-04T08:48:53.126Z,1775
2017-08-04T08:49:34.036Z,1845
2017-08-04T08:50:14.940Z,1465
2017-08-04T08:50:55.838Z,1505
2017-08-04T08:51:36.727Z,1450
2017-08-04T08:52:17.639Z,1430
2017-08-04T08:52:58.544Z,1470
2017-08-04T08:53:39.434Z,1605
2017-08-04T08:54:20.333Z,1700
2017-08-04T08:55:01.229Z,2145
2017-08-04T08:55:42.134Z,1515
2017-08-04T08:56:23.028Z,1435
2017-08-04T08:57:03.935Z,1375
2017-08-04T08:57:44.837Z,1940
2017-08-04T08:58:25.736Z,1825
2017-08-04T08:59:06.648Z,1590
2017-08-04T08:59:47.540Z,1870
2017-08-04T09:00:28.461Z,2065
2017-08-04T09:01:09.351Z,1940
2017-08-04T09:01:50.281Z,1445
2017-08-04T09:02:31.160Z,1435
2017-08-04T09:03:12.084Z,1365
2017-08-04T09:03:52.986Z,1040
2017-08-04T09:04:33.884Z,680
2017-08-04T09:05:14.780Z,1005
2017-08-04T09:05:55.683Z,930
2017-08-04T09:06:36.571Z,970
2017-08-04T09:07:17.469Z,810
2017-08-04T09:07:58.358Z,995
2017-08-04T09:08:39.262Z,645
2017-08-04T09:09:20.155Z,1510
2017-08-04T09:10:01.064Z,1800
2017-08-04T09:10:41.955Z,2320
2017-08-04T09:11:22.854Z,2065
2017-08-04T09:12:03.768Z,2100
2017-08-04T09:12:44.669Z,815
2017-08-04T09:13:25.589Z,865
2017-08-04T09:14:06.479Z,2625
2017-08-04T09:14:47.401Z,3185
2017-08-04T09:15:28.301Z,2425
2017-08-04T09:16:09.211Z,1880
2017-08-04T09:16:50.097Z,1530
2017-08-04T09:17:30.988Z,1510
2017-08-04T09:18:11.886Z,1430
2017-08-04T09:18:52.767Z,1320
2017-08-04T09:19:33.688Z,1260
2017-08-04T09:20:14.598Z,1385
2017-08-04T09:20:55.488Z,1330
2017-08-04T09:21:36.392Z,1220
2017-08-04T09:22:17.296Z,1015
2017-08-04T09:22:58.193Z,1560
2017-08-04T09:23:39.078Z,1210
2017-08-04T09:24:19.973Z,1270
2017-08-04T09:25:00.885Z,1935
2017-08-04T09:25:41.787Z,2105
2017-08-04T09:26:22.696Z,2270
2017-08-04T09:27:03.593Z,2210
2017-08-04T09:27:44.497Z,1925
2017-08-04T09:28:25.392Z,2460
2017-08-04T09:29:06.310Z,1665
2017-08-04T09:29:47.206Z,1800
2017-08-04T09:30:28.097Z,1835
2017-08-04T09:31:08.986Z,1640
2017-08-04T09:31:49.876Z,2040
2017-08-04T09:32:30.774Z,1480
2017-08-04T09:33:11.666Z,1660
2017-08-04T09:33:52.570Z,1270
2017-08-04T09:36:11.903Z,2890
2017-08-04T09:36:52.786Z,3440
2017-08-04T09:37:33.677Z,920
2017-08-04T09:38:14.575Z,1465
2017-08-04T09:38:55.526Z,1865
2017-08-04T09:41:04.572Z,790
2017-08-04T09:41:45.458Z,915
2017-08-04T09:43:54.557Z,980
2017-08-04T09:44:35.458Z,1250
2017-08-04T09:45:16.353Z,1015
2017-08-04T09:45:57.234Z,1050
2017-08-04T09:46:38.150Z,905
2017-08-04T09:47:19.055Z,1025
2017-08-04T09:47:59.943Z,910
2017-08-04T09:48:40.838Z,810
2017-08-04T09:49:21.730Z,755
2017-08-04T09:50:02.642Z,795
2017-08-04T09:50:43.545Z,1935
2017-08-04T09:51:24.436Z,1205
2017-08-04T09:52:05.332Z,1585
2017-08-04T09:52:46.237Z,3040
2017-08-04T09:53:27.128Z,980
2017-08-04T09:54:08.024Z,1890
2017-08-04T09:56:06.888Z,2685
2017-08-04T09:56:47.795Z,2950
2017-08-04T09:57:28.681Z,3255
2017-08-04T09:58:09.572Z,2365
2017-08-04T09:58:50.474Z,2940
2017-08-04T09:59:31.365Z,960
2017-08-04T10:00:12.252Z,895
2017-08-04T10:00:53.144Z,825
2017-08-04T10:01:34.044Z,955
2017-08-04T10:02:14.941Z,1385
2017-08-04T10:02:55.828Z,1255
2017-08-04T10:03:36.734Z,1230
2017-08-04T10:04:17.619Z,1080
2017-08-04T10:04:58.513Z,760
2017-08-04T10:05:39.400Z,840
2017-08-04T10:06:20.299Z,1535
2017-08-04T10:07:01.196Z,1760
2017-08-04T10:07:42.099Z,1065
2017-08-04T10:08:23.006Z,2400
2017-08-04T10:09:03.931Z,3015
2017-08-04T10:09:44.808Z,2465
2017-08-04T10:10:25.743Z,970
2017-08-04T10:11:06.619Z,950
2017-08-04T10:11:47.526Z,2680
2017-08-04T10:12:28.411Z,1045
2017-08-04T10:13:09.298Z,840
2017-08-04T10:13:50.199Z,2075